createdAt,value
2022-12-05T00:01:22.718Z,49.03
2022-12-05T00:03:52.049Z,43.65
2022-12-05T00:06:19.510Z,46.70
2022-12-05T00:08:47.113Z,47.60
2022-12-05T00:11:19.021Z,44.83
2022-12-05T00:13:46.573Z,44.08
2022-12-05T00:16:15.840Z,45.95
2022-12-05T00:18:43.065Z,41.97
2022-12-05T00:21:16.469Z,43.15
2022-12-05T00:23:43.411Z,47.88
2022-12-05T00:26:11.152Z,46.00
2022-12-05T00:28:38.215Z,44.10
2022-12-05T00:31:07.641Z,45.60
2022-12-05T00:33:34.759Z,43.25
2022-12-05T00:36:03.786Z,40.38
2022-12-05T00:38:30.623Z,39.75
2022-12-05T00:40:57.456Z,41.95
2022-12-05T00:43:24.355Z,38.67
2022-12-05T00:45:51.220Z,37.35
2022-12-05T00:48:18.048Z,37.83
2022-12-05T00:50:44.883Z,37.53
2022-12-05T00:53:11.832Z,33.13
2022-12-05T00:55:38.684Z,36.60
2022-12-05T00:58:05.589Z,39.53
2022-12-05T01:00:32.375Z,34.53
2022-12-05T01:02:59.243Z,36.10
2022-12-05T01:05:26.176Z,35.33
2022-12-05T01:07:53.007Z,35.67
2022-12-05T01:10:19.832Z,34.50
2022-12-05T01:12:46.642Z,33.75
2022-12-05T01:15:13.457Z,34.30
2022-12-05T01:17:40.339Z,37.67
2022-12-05T01:20:07.816Z,35.20
2022-12-05T01:22:34.657Z,36.95
2022-12-05T01:25:01.620Z,38.40
2022-12-05T01:27:28.770Z,33.88
2022-12-05T01:29:55.988Z,36.08
2022-12-05T01:32:23.138Z,33.58
2022-12-05T01:34:50.128Z,34.67
2022-12-05T01:37:16.976Z,34.92
2022-12-05T01:39:43.878Z,36.55
2022-12-05T01:42:12.124Z,34.05
2022-12-05T01:44:39.034Z,35.38
2022-12-05T01:47:05.869Z,35.85
2022-12-05T01:49:38.008Z,34.17
2022-12-05T01:52:09.349Z,35.00
2022-12-05T01:54:37.430Z,32.28
2022-12-05T01:57:08.175Z,33.13
2022-12-05T01:59:39.303Z,34.20
2022-12-05T02:02:06.395Z,38.00
2022-12-05T02:04:37.841Z,33.55
2022-12-05T02:07:04.829Z,35.78
2022-12-05T02:09:31.678Z,35.35
2022-12-05T02:12:01.667Z,36.75
2022-12-05T02:14:51.645Z,36.30
2022-12-05T02:17:21.011Z,32.70
2022-12-05T02:19:53.530Z,35.97
2022-12-05T02:22:57.552Z,39.50
2022-12-05T02:25:50.743Z,37.03
2022-12-05T02:28:54.700Z,34.88
2022-12-05T02:31:42.744Z,36.45
2022-12-05T02:34:21.345Z,34.08
2022-12-05T02:37:18.601Z,34.10
2022-12-05T02:39:59.417Z,40.42
2022-12-05T02:42:41.053Z,37.42
2022-12-05T02:45:14.111Z,38.33
2022-12-05T02:47:48.035Z,33.80
2022-12-05T02:50:19.178Z,35.42
2022-12-05T02:52:49.142Z,37.38
2022-12-05T02:55:17.380Z,38.97
2022-12-05T02:57:47.193Z,36.85
2022-12-05T03:00:14.805Z,40.20
2022-12-05T03:02:41.724Z,35.65
2022-12-05T03:05:36.732Z,36.67
2022-12-05T03:08:06.258Z,37.22
2022-12-05T03:10:33.688Z,36.10
2022-12-05T03:13:14.952Z,37.58
2022-12-05T03:15:46.115Z,33.50
2022-12-05T03:18:23.901Z,39.35
2022-12-05T03:21:01.006Z,38.22
2022-12-05T03:23:33.792Z,35.00
2022-12-05T03:26:14.477Z,40.05
2022-12-05T03:29:02.468Z,40.67
2022-12-05T03:31:42.524Z,66.90
2022-12-05T03:34:15.593Z,48.42
2022-12-05T03:36:46.215Z,43.75
2022-12-05T03:39:23.592Z,33.17
2022-12-05T03:42:15.982Z,32.13
2022-12-05T03:44:52.219Z,34.47
2022-12-05T03:47:22.145Z,36.05
2022-12-05T03:49:53.008Z,33.53
2022-12-05T03:53:17.571Z,32.72
2022-12-05T03:55:31.643Z,36.72
2022-12-05T03:58:06.309Z,38.78
2022-12-05T04:00:36.454Z,33.63
2022-12-05T04:03:05.998Z,33.15
2022-12-05T04:05:39.379Z,38.47
2022-12-05T04:08:18.796Z,34.65
2022-12-05T04:10:48.819Z,32.92
2022-12-05T04:13:23.317Z,34.92
2022-12-05T04:16:14.534Z,35.28
2022-12-05T04:18:46.899Z,37.83
2022-12-05T04:21:33.270Z,35.72
2022-12-05T04:24:19.118Z,37.25
2022-12-05T04:26:48.573Z,36.03
2022-12-05T04:29:29.444Z,45.15
2022-12-05T04:31:59.839Z,40.75
2022-12-05T04:34:28.496Z,32.67
2022-12-05T04:37:05.401Z,30.33
2022-12-05T04:39:44.980Z,34.67
2022-12-05T04:42:16.253Z,32.92
2022-12-05T04:44:50.179Z,34.15
2022-12-05T04:47:19.923Z,33.38
2022-12-05T04:49:53.388Z,29.25
2022-12-05T04:52:20.791Z,31.40
2022-12-05T04:54:52.798Z,32.92
2022-12-05T04:57:24.717Z,32.55
2022-12-05T04:59:51.620Z,31.73
2022-12-05T05:02:25.932Z,32.78
2022-12-05T05:04:53.657Z,32.40
2022-12-05T05:07:20.684Z,32.05
2022-12-05T05:09:47.520Z,34.15
2022-12-05T05:12:18.739Z,35.35
2022-12-05T05:14:46.146Z,38.53
2022-12-05T05:17:13.014Z,36.63
2022-12-05T05:19:39.839Z,32.60
2022-12-05T05:22:06.682Z,31.30
2022-12-05T05:24:33.788Z,33.38
2022-12-05T05:27:00.634Z,30.38
2022-12-05T05:29:27.432Z,30.13
2022-12-05T05:31:54.261Z,30.80
2022-12-05T05:34:21.092Z,30.35
2022-12-05T05:36:52.990Z,33.08
2022-12-05T05:39:19.973Z,30.40
2022-12-05T05:41:46.815Z,33.47
2022-12-05T05:44:13.648Z,28.73
2022-12-05T05:46:40.580Z,31.17
2022-12-05T05:49:07.492Z,31.45
2022-12-05T05:51:34.480Z,31.15
2022-12-05T05:54:01.489Z,29.88
2022-12-05T05:56:28.793Z,30.70
2022-12-05T05:59:00.906Z,28.00
2022-12-05T06:01:28.576Z,28.50
2022-12-05T06:03:55.574Z,32.13
2022-12-05T06:06:23.244Z,31.13
2022-12-05T06:08:50.321Z,33.38
2022-12-05T06:11:25.385Z,41.35
2022-12-05T06:13:56.427Z,39.25
2022-12-05T06:16:23.500Z,50.95
2022-12-05T06:18:50.597Z,35.92
2022-12-05T06:21:17.768Z,45.92
2022-12-05T06:23:44.959Z,48.13
2022-12-05T06:26:16.967Z,44.50
2022-12-05T06:28:44.544Z,37.22
2022-12-05T06:31:34.025Z,40.25
2022-12-05T06:34:03.013Z,42.70
2022-12-05T06:36:30.766Z,42.30
2022-12-05T06:38:58.438Z,34.60
2022-12-05T06:41:25.901Z,33.70
2022-12-05T06:43:58.649Z,37.47
2022-12-05T06:46:28.529Z,37.78
2022-12-05T06:48:57.537Z,36.15
2022-12-05T06:51:24.669Z,30.98
2022-12-05T06:53:51.673Z,35.45
2022-12-05T06:56:20.177Z,38.58
2022-12-05T06:58:52.482Z,40.20
2022-12-05T07:01:42.089Z,33.78
2022-12-05T07:04:20.249Z,37.60
2022-12-05T07:06:51.029Z,37.80
2022-12-05T07:09:44.071Z,33.85
2022-12-05T07:12:15.620Z,36.20
2022-12-05T07:14:48.164Z,29.25
2022-12-05T07:17:16.272Z,32.58
2022-12-05T07:19:43.180Z,28.83
2022-12-05T07:22:15.394Z,31.38
2022-12-05T07:24:42.826Z,34.35
2022-12-05T07:27:09.666Z,32.22
2022-12-05T07:29:36.598Z,26.83
2022-12-05T07:32:04.023Z,33.70
2022-12-05T07:34:31.472Z,30.80
2022-12-05T07:36:58.370Z,29.20
2022-12-05T07:39:25.203Z,27.55
2022-12-05T07:41:52.036Z,30.38
2022-12-05T07:44:19.287Z,32.55
2022-12-05T07:46:46.339Z,30.17
2022-12-05T07:49:13.225Z,26.48
2022-12-05T07:51:40.039Z,27.85
2022-12-05T07:54:07.348Z,25.23
2022-12-05T07:56:34.279Z,31.75
2022-12-05T07:59:01.301Z,27.75
2022-12-05T08:01:29.245Z,32.17
2022-12-05T08:03:57.924Z,28.88
2022-12-05T08:06:29.281Z,30.38
2022-12-05T08:08:56.633Z,27.63
2022-12-05T08:11:26.912Z,29.83
2022-12-05T08:13:54.615Z,27.73
2022-12-05T08:16:27.970Z,26.80
2022-12-05T08:19:00.431Z,26.48
2022-12-05T08:21:27.828Z,25.50
2022-12-05T08:23:55.111Z,30.27
2022-12-05T08:26:29.460Z,41.30
2022-12-05T08:29:02.364Z,34.33
2022-12-05T08:31:30.969Z,35.08
2022-12-05T08:33:59.834Z,26.75
2022-12-05T08:36:28.222Z,21.35
2022-12-05T08:39:03.834Z,23.92
2022-12-05T08:41:31.325Z,23.75
2022-12-05T08:44:05.468Z,24.52
2022-12-05T08:46:34.959Z,24.02
2022-12-05T08:49:02.764Z,24.83
2022-12-05T08:51:29.584Z,22.50
2022-12-05T08:53:56.635Z,23.70
2022-12-05T08:56:27.145Z,24.80
2022-12-05T08:58:58.537Z,23.38
2022-12-05T09:01:33.474Z,22.23
2022-12-05T09:04:01.283Z,25.27
2022-12-05T09:06:29.656Z,25.33
2022-12-05T09:09:02.568Z,24.75
2022-12-05T09:11:31.707Z,27.75
2022-12-05T09:13:59.440Z,25.67
2022-12-05T09:16:39.020Z,25.65
2022-12-05T09:19:14.420Z,25.60
2022-12-05T09:21:42.116Z,25.13
2022-12-05T09:24:11.176Z,30.13
2022-12-05T09:26:38.101Z,31.27
2022-12-05T09:29:04.969Z,25.23
2022-12-05T09:31:32.097Z,29.10
2022-12-05T09:33:59.181Z,27.50
2022-12-05T09:36:30.968Z,24.45
2022-12-05T09:39:04.148Z,23.58
2022-12-05T09:42:04.653Z,25.50
2022-12-05T09:44:49.706Z,25.25
2022-12-05T09:47:30.720Z,21.55
2022-12-05T09:50:19.420Z,24.50
2022-12-05T09:52:58.958Z,23.75
2022-12-05T09:55:26.146Z,24.08
2022-12-05T09:57:57.398Z,27.42
2022-12-05T10:00:25.470Z,26.27
2022-12-05T10:03:19.831Z,21.55
2022-12-05T10:06:08.323Z,23.70
2022-12-05T10:08:55.034Z,24.10
2022-12-05T10:11:33.339Z,23.65
2022-12-05T10:14:13.255Z,25.48
2022-12-05T10:16:48.929Z,22.98
2022-12-05T10:19:27.694Z,23.02
2022-12-05T10:22:20.666Z,28.35
2022-12-05T10:24:52.878Z,25.23
2022-12-05T10:27:40.299Z,27.88
2022-12-05T10:30:13.859Z,27.23
2022-12-05T10:32:52.761Z,24.65
2022-12-05T10:35:25.676Z,22.25
2022-12-05T10:37:56.043Z,22.75
2022-12-05T10:40:23.298Z,21.38
2022-12-05T10:42:50.902Z,23.90
2022-12-05T10:45:20.869Z,22.98
2022-12-05T10:47:48.414Z,24.55
2022-12-05T10:50:25.009Z,22.60
2022-12-05T10:52:57.110Z,23.13
2022-12-05T10:55:35.173Z,23.53
2022-12-05T10:58:17.808Z,22.63
2022-12-05T11:00:47.530Z,19.52
2022-12-05T11:03:31.855Z,24.02
2022-12-05T11:06:02.135Z,22.05
2022-12-05T11:09:02.492Z,22.85
2022-12-05T11:11:23.386Z,20.63
2022-12-05T11:13:59.216Z,21.42
2022-12-05T11:16:33.024Z,19.83
2022-12-05T11:19:27.812Z,16.27
2022-12-05T11:21:55.170Z,19.88
2022-12-05T11:24:33.784Z,16.42
2022-12-05T11:27:16.841Z,15.57
2022-12-05T11:29:58.250Z,16.13
2022-12-05T11:32:28.186Z,14.40
2022-12-05T11:35:25.843Z,17.20
2022-12-05T11:38:00.806Z,15.32
2022-12-05T11:40:46.311Z,13.88
2022-12-05T11:43:34.454Z,15.80
2022-12-05T11:46:04.232Z,17.02
2022-12-05T11:48:55.218Z,15.05
2022-12-05T11:51:39.771Z,17.33
2022-12-05T11:55:03.457Z,20.05
2022-12-05T11:57:52.721Z,18.70
2022-12-05T12:00:27.740Z,19.15
2022-12-05T12:03:00.529Z,20.75
2022-12-05T12:06:05.443Z,18.17
2022-12-05T12:08:45.812Z,22.05
2022-12-05T12:11:28.445Z,21.23
2022-12-05T12:14:00.282Z,27.58
2022-12-05T12:16:58.622Z,26.30
2022-12-05T12:19:34.493Z,22.70
2022-12-05T12:22:04.146Z,23.40
2022-12-05T12:24:31.008Z,23.20
2022-12-05T12:27:14.917Z,23.00
2022-12-05T12:30:16.974Z,22.20
2022-12-05T12:33:13.851Z,25.23
2022-12-05T12:35:59.784Z,19.20
2022-12-05T12:38:51.606Z,20.52
2022-12-05T12:41:46.480Z,24.38
2022-12-05T12:44:46.036Z,18.60
2022-12-05T12:47:40.191Z,18.58
2022-12-05T12:50:20.637Z,30.05
2022-12-05T12:53:08.994Z,27.80
2022-12-05T12:55:45.007Z,26.20
2022-12-05T12:58:14.840Z,19.48
2022-12-05T13:00:54.219Z,19.90
2022-12-05T13:03:22.841Z,16.30
2022-12-05T13:05:54.459Z,22.35
2022-12-05T13:08:52.635Z,22.90
2022-12-05T13:11:20.693Z,17.27
2022-12-05T13:13:53.661Z,19.55
2022-12-05T13:18:59.340Z,19.15
2022-12-05T13:21:26.876Z,16.10
2022-12-05T13:24:03.717Z,21.75
2022-12-05T13:26:33.108Z,20.65
2022-12-05T13:29:01.592Z,21.77
2022-12-05T13:31:42.639Z,18.83
2022-12-05T13:34:29.876Z,17.67
2022-12-05T13:37:17.106Z,17.15
2022-12-05T13:40:10.375Z,15.73
2022-12-05T13:45:04.929Z,14.77
2022-12-05T13:47:52.758Z,15.95
2022-12-05T13:50:29.426Z,18.10
2022-12-05T13:53:18.655Z,19.38
2022-12-05T13:56:22.945Z,14.35
2022-12-05T13:58:51.911Z,14.93
2022-12-05T14:01:52.054Z,14.20
2022-12-05T14:06:50.657Z,14.82
2022-12-05T14:09:17.610Z,18.75
2022-12-05T14:12:15.034Z,15.27
2022-12-05T14:14:57.326Z,18.85
2022-12-05T14:17:44.064Z,11.83
2022-12-05T14:20:28.786Z,15.30
2022-12-05T14:23:32.506Z,17.08
2022-12-05T14:28:50.193Z,17.67
2022-12-05T14:31:23.444Z,19.80
2022-12-05T14:34:22.440Z,19.00
2022-12-05T14:36:58.155Z,22.23
2022-12-05T14:40:01.116Z,23.48
2022-12-05T14:42:51.094Z,22.80
2022-12-05T14:45:27.965Z,27.55
2022-12-05T14:47:57.876Z,24.00
2022-12-05T14:50:46.851Z,19.83
2022-12-05T14:53:37.632Z,20.85
2022-12-05T14:56:27.415Z,23.80
2022-12-05T14:58:57.116Z,22.88
2022-12-05T15:01:34.126Z,19.58
2022-12-05T15:04:24.047Z,22.10
2022-12-05T15:07:00.480Z,35.90
2022-12-05T15:09:41.811Z,16.90
2022-12-05T15:12:15.878Z,17.23
2022-12-05T15:14:54.716Z,18.00
2022-12-05T15:17:25.702Z,18.25
2022-12-05T15:20:03.855Z,16.70
2022-12-05T15:22:34.705Z,20.27
2022-12-05T15:25:24.226Z,19.60
2022-12-05T15:28:00.520Z,17.02
2022-12-05T15:30:28.854Z,22.35
2022-12-05T15:32:59.376Z,17.70
2022-12-05T15:35:28.659Z,22.38
2022-12-05T15:38:05.906Z,27.48
2022-12-05T15:40:38.451Z,25.83
2022-12-05T15:43:23.812Z,23.42
2022-12-05T15:45:50.814Z,22.75
2022-12-05T15:48:23.009Z,34.63
2022-12-05T15:50:51.699Z,23.95
2022-12-05T15:53:37.407Z,22.80
2022-12-05T15:56:08.987Z,21.83
2022-12-05T15:58:41.540Z,27.52
2022-12-05T16:01:17.805Z,28.92
2022-12-05T16:04:00.253Z,21.75
2022-12-05T16:06:31.765Z,16.45
2022-12-05T16:08:59.396Z,25.20
2022-12-05T16:11:26.528Z,21.60
2022-12-05T16:14:03.025Z,20.20
2022-12-05T16:16:35.660Z,21.02
2022-12-05T16:19:26.045Z,19.08
2022-12-05T16:22:11.503Z,16.92
2022-12-05T16:24:48.483Z,19.75
2022-12-05T16:27:15.972Z,18.25
2022-12-05T16:29:43.291Z,16.52
2022-12-05T16:32:24.105Z,15.55
2022-12-05T16:34:51.279Z,14.30
2022-12-05T16:37:27.272Z,19.42
2022-12-05T16:39:54.440Z,16.48
2022-12-05T16:42:28.963Z,15.73
2022-12-05T16:45:03.792Z,18.83
2022-12-05T16:47:45.225Z,18.45
2022-12-05T16:50:32.894Z,17.10
2022-12-05T16:53:09.185Z,18.27
2022-12-05T16:55:39.537Z,16.55
2022-12-05T16:58:08.892Z,18.95
2022-12-05T17:00:35.728Z,19.90
2022-12-05T17:03:32.256Z,20.73
2022-12-05T17:05:50.724Z,26.38
2022-12-05T17:08:17.571Z,23.80
2022-12-05T17:10:44.543Z,22.67
2022-12-05T17:13:15.033Z,23.05
2022-12-05T17:15:42.511Z,20.92
2022-12-05T17:18:23.219Z,24.50
2022-12-05T17:20:54.185Z,20.05
2022-12-05T17:23:21.107Z,20.65
2022-12-05T17:25:55.747Z,19.95
2022-12-05T17:28:22.855Z,23.38
2022-12-05T17:30:50.043Z,26.33
2022-12-05T17:33:18.872Z,20.77
2022-12-05T17:35:46.135Z,20.35
2022-12-05T17:38:13.312Z,22.75
2022-12-05T17:40:40.536Z,32.70
2022-12-05T17:43:07.442Z,22.15
2022-12-05T17:45:34.282Z,21.70
2022-12-05T17:48:01.292Z,22.77
2022-12-05T17:50:28.179Z,20.60
2022-12-05T17:52:56.934Z,22.73
2022-12-05T17:55:28.573Z,24.15
2022-12-05T17:57:55.988Z,27.02
2022-12-05T18:00:24.346Z,26.30
2022-12-05T18:02:52.756Z,24.75
2022-12-05T18:05:19.999Z,23.33
2022-12-05T18:07:47.412Z,22.33
2022-12-05T18:10:17.703Z,23.05
2022-12-05T18:12:44.845Z,20.73
2022-12-05T18:15:12.368Z,20.58
2022-12-05T18:17:39.760Z,29.35
2022-12-05T18:20:08.323Z,22.13
2022-12-05T18:22:35.406Z,22.45
2022-12-05T18:25:03.513Z,30.95
2022-12-05T18:27:31.066Z,24.92
2022-12-05T18:29:58.261Z,20.95
2022-12-05T18:32:25.221Z,26.92
2022-12-05T18:34:52.055Z,26.25
2022-12-05T18:37:19.006Z,28.70
2022-12-05T18:39:46.245Z,24.02
2022-12-05T18:42:15.321Z,44.17
2022-12-05T18:44:42.682Z,34.83
2022-12-05T18:47:09.605Z,30.67
2022-12-05T18:49:36.612Z,26.92
2022-12-05T18:52:03.486Z,26.48
2022-12-05T18:54:30.558Z,27.60
2022-12-05T18:56:57.456Z,24.85
2022-12-05T18:59:24.280Z,23.05
2022-12-05T19:01:51.254Z,21.98
2022-12-05T19:04:20.077Z,20.02
2022-12-05T19:06:49.786Z,26.83
2022-12-05T19:09:18.654Z,17.98
2022-12-05T19:11:49.100Z,29.63
2022-12-05T19:14:18.830Z,22.27
2022-12-05T19:16:46.589Z,20.88
2022-12-05T19:19:14.522Z,22.15
2022-12-05T19:21:42.314Z,25.35
2022-12-05T19:24:11.008Z,25.85
2022-12-05T19:26:37.862Z,27.02
2022-12-05T19:29:04.990Z,24.35
2022-12-05T19:31:32.071Z,26.33
2022-12-05T19:34:00.727Z,25.00
2022-12-05T19:36:33.203Z,23.13
2022-12-05T19:39:00.115Z,22.27
2022-12-05T19:41:28.721Z,22.52
2022-12-05T19:43:58.693Z,22.55
2022-12-05T19:46:30.005Z,24.02
2022-12-05T19:48:58.985Z,24.00
2022-12-05T19:51:26.804Z,23.38
2022-12-05T19:53:53.899Z,25.33
2022-12-05T19:56:23.465Z,30.33
2022-12-05T19:58:52.115Z,40.45
2022-12-05T20:01:24.819Z,74.00
2022-12-05T20:03:55.801Z,56.92
2022-12-05T20:06:23.427Z,49.33
2022-12-05T20:08:52.523Z,42.08
2022-12-05T20:11:22.277Z,42.88
2022-12-05T20:13:49.162Z,41.50
2022-12-05T20:16:18.919Z,45.03
2022-12-05T20:18:46.493Z,48.30
2022-12-05T20:21:15.229Z,36.67
2022-12-05T20:23:42.234Z,29.40
2022-12-05T20:26:26.608Z,28.90
2022-12-05T20:28:56.405Z,29.77
2022-12-05T20:31:25.296Z,31.13
2022-12-05T20:33:53.201Z,34.90
2022-12-05T20:36:30.556Z,28.98
2022-12-05T20:38:59.925Z,27.33
2022-12-05T20:41:27.404Z,22.98
2022-12-05T20:43:56.656Z,28.88
2022-12-05T20:46:24.318Z,27.52
2022-12-05T20:48:52.323Z,26.60
2022-12-05T20:51:27.455Z,33.78
2022-12-05T20:53:54.837Z,30.58
2022-12-05T20:56:25.343Z,28.90
2022-12-05T20:58:55.928Z,29.52
2022-12-05T21:01:23.794Z,27.67
2022-12-05T21:03:51.807Z,29.35
2022-12-05T21:06:24.314Z,26.02
2022-12-05T21:08:52.397Z,27.10
2022-12-05T21:11:20.098Z,25.38
2022-12-05T21:13:47.066Z,27.92
2022-12-05T21:16:16.870Z,29.90
2022-12-05T21:18:44.247Z,26.67
2022-12-05T21:21:18.934Z,30.98
2022-12-05T21:23:48.031Z,29.55
2022-12-05T21:26:17.163Z,33.28
2022-12-05T21:28:45.568Z,30.00
2022-12-05T21:31:24.470Z,22.92
2022-12-05T21:33:54.833Z,23.50
2022-12-05T21:36:22.530Z,27.38
2022-12-05T21:38:55.442Z,21.65
2022-12-05T21:41:23.433Z,25.33
2022-12-05T21:43:54.395Z,29.02
2022-12-05T21:46:23.005Z,36.10
2022-12-05T21:48:49.910Z,35.28
2022-12-05T21:51:17.085Z,31.08
2022-12-05T21:53:44.003Z,31.95
2022-12-05T21:56:15.651Z,32.85
2022-12-05T21:58:43.866Z,29.08
2022-12-05T22:01:12.227Z,26.73
2022-12-05T22:03:39.478Z,20.73
2022-12-05T22:06:10.830Z,23.20
2022-12-05T22:08:38.661Z,21.58
2022-12-05T22:11:18.811Z,23.33
2022-12-05T22:13:49.611Z,23.50
2022-12-05T22:16:17.583Z,21.23
2022-12-05T22:18:44.839Z,21.48
2022-12-05T22:21:19.937Z,20.30
2022-12-05T22:23:47.884Z,25.73
2022-12-05T22:26:17.407Z,16.92
2022-12-05T22:28:49.746Z,14.18
2022-12-05T22:31:17.863Z,16.15
2022-12-05T22:33:45.068Z,19.23
2022-12-05T22:36:14.274Z,21.27
2022-12-05T22:38:43.648Z,19.90
2022-12-05T22:41:18.025Z,17.00
2022-12-05T22:43:47.000Z,18.15
2022-12-05T22:46:17.959Z,17.48
2022-12-05T22:48:46.428Z,24.08
2022-12-05T22:51:14.080Z,26.90
2022-12-05T22:53:41.033Z,24.75
2022-12-05T22:56:15.669Z,23.92
2022-12-05T22:58:46.722Z,25.02
2022-12-05T23:01:31.929Z,22.88
2022-12-05T23:04:04.140Z,22.73
2022-12-05T23:06:32.368Z,19.83
2022-12-05T23:08:59.906Z,20.35
2022-12-05T23:11:27.690Z,19.83
2022-12-05T23:14:01.580Z,22.48
2022-12-05T23:16:33.462Z,22.73
2022-12-05T23:19:05.539Z,19.45
2022-12-05T23:21:34.444Z,20.85
2022-12-05T23:24:04.719Z,23.27
2022-12-05T23:26:34.966Z,21.30
2022-12-05T23:29:02.510Z,19.33
2022-12-05T23:31:29.478Z,18.63
2022-12-05T23:34:03.523Z,21.42
2022-12-05T23:36:33.207Z,19.38
2022-12-05T23:39:00.696Z,19.38
2022-12-05T23:41:27.804Z,20.35
2022-12-05T23:43:55.170Z,24.80
2022-12-05T23:46:24.309Z,20.67
2022-12-05T23:48:51.645Z,18.17
2022-12-05T23:51:25.597Z,22.15
2022-12-05T23:53:59.416Z,24.25
2022-12-05T23:56:28.944Z,20.90
2022-12-05T23:58:56.799Z,16.50
